Time;durP1;ratioP1;P1;durP2;ratioP2;P2;SDS_P1;SDS_P2;PMS_P1;PMS_P2;Temp;Humidity;BMP_temperature;BMP_pressure;BME280_temperature;BME280_humidity;BME280_pressure;Samples;Min_cycle;Max_cycle;Signal;HPM_P1;HPM_P2
2023/03/13 00:02:18;;;;;;;1.00;1.00;;;17.00;62.90;;;;;;4986179;28;43416;-69
2023/03/13 00:04:46;;;;;;;0.93;0.93;;;16.90;62.90;;;;;;4986118;28;43453;-72
2023/03/13 00:07:14;;;;;;;1.00;1.00;;;16.90;62.90;;;;;;4986597;28;43433;-70
2023/03/13 00:09:42;;;;;;;1.03;1.03;;;16.90;63.10;;;;;;4972863;28;45874;-71
2023/03/13 00:12:10;;;;;;;0.97;0.97;;;16.90;63.00;;;;;;4971861;28;45699;-70
2023/03/13 00:14:38;;;;;;;1.00;1.00;;;17.10;62.90;;;;;;4986200;28;43526;-70
2023/03/13 00:17:08;;;;;;;1.17;1.17;;;17.10;62.50;;;;;;4986892;28;43971;-72
2023/03/13 00:19:36;;;;;;;1.10;1.10;;;17.10;62.40;;;;;;4968644;28;45948;-70
2023/03/13 00:22:04;;;;;;;1.10;1.10;;;17.10;62.50;;;;;;4986154;28;43875;-70
2023/03/13 00:24:32;;;;;;;1.13;1.13;;;17.10;62.60;;;;;;4985772;28;43406;-71
2023/03/13 00:27:02;;;;;;;1.00;1.00;;;17.00;62.70;;;;;;4986432;28;43501;-71
2023/03/13 00:29:30;;;;;;;1.10;1.10;;;17.00;62.60;;;;;;4966295;28;44142;-72
2023/03/13 00:31:58;;;;;;;1.10;1.10;;;17.00;62.80;;;;;;4985673;28;43374;-71
2023/03/13 00:34:27;;;;;;;0.80;0.80;;;17.00;62.70;;;;;;4961642;28;43477;-70
2023/03/13 00:36:55;;;;;;;0.90;0.90;;;17.00;62.80;;;;;;4983852;28;43418;-72
2023/03/13 00:39:25;;;;;;;1.10;1.10;;;17.00;62.90;;;;;;4989289;28;43817;-70
2023/03/13 00:41:53;;;;;;;1.00;1.00;;;17.00;63.00;;;;;;4983142;28;43422;-70
2023/03/13 00:44:21;;;;;;;1.00;1.00;;;17.00;63.00;;;;;;4989374;28;43396;-70
2023/03/13 00:46:49;;;;;;;0.93;0.93;;;17.00;62.90;;;;;;4971452;28;43442;-72
2023/03/13 00:49:17;;;;;;;1.07;1.07;;;17.00;63.00;;;;;;4989204;28;43929;-70
2023/03/13 00:51:46;;;;;;;0.97;0.97;;;17.00;63.00;;;;;;4971086;28;44615;-72
2023/03/13 00:54:14;;;;;;;1.03;1.00;;;16.90;63.00;;;;;;4971080;28;44024;-72
2023/03/13 00:56:42;;;;;;;1.10;1.10;;;16.90;63.10;;;;;;4971834;28;43595;-71
2023/03/13 00:59:10;;;;;;;1.03;1.03;;;16.90;63.20;;;;;;4988912;28;44045;-72
2023/03/13 01:01:38;;;;;;;1.00;1.00;;;17.00;63.00;;;;;;4971793;28;45164;-71
2023/03/13 01:04:07;;;;;;;1.10;1.10;;;17.10;62.70;;;;;;4971433;28;43473;-70
2023/03/13 01:06:36;;;;;;;0.97;0.97;;;17.10;62.60;;;;;;4989230;28;43569;-71
2023/03/13 01:09:06;;;;;;;1.00;1.00;;;17.10;62.60;;;;;;4970475;28;45428;-73
2023/03/13 01:11:34;;;;;;;1.10;1.10;;;17.10;62.70;;;;;;4976454;28;44986;-71
2023/03/13 01:14:04;;;;;;;0.80;0.80;;;17.00;62.80;;;;;;4971264;28;43423;-70
2023/03/13 01:16:33;;;;;;;1.03;0.97;;;17.10;62.80;;;;;;4973829;28;43509;-70
2023/03/13 01:19:02;;;;;;;0.80;0.80;;;17.10;62.80;;;;;;4970075;28;45609;-70
2023/03/13 01:21:30;;;;;;;1.07;1.07;;;17.00;63.50;;;;;;4970996;28;45070;-70
2023/03/13 01:23:58;;;;;;;0.80;0.80;;;17.00;62.80;;;;;;4988693;28;43928;-70
2023/03/13 01:26:27;;;;;;;1.17;1.00;;;17.00;62.90;;;;;;4971537;28;43979;-71
2023/03/13 01:28:55;;;;;;;1.10;1.10;;;17.00;63.00;;;;;;4988625;28;43855;-70
2023/03/13 01:31:25;;;;;;;0.93;0.93;;;17.00;63.10;;;;;;4971103;28;44604;-70
2023/03/13 01:33:54;;;;;;;0.90;0.90;;;17.00;62.90;;;;;;4970392;28;43344;-71
2023/03/13 01:36:22;;;;;;;1.43;1.10;;;17.00;63.00;;;;;;4975421;28;43461;-70
2023/03/13 01:38:51;;;;;;;0.90;0.90;;;17.00;63.00;;;;;;4988474;28;43956;-72
2023/03/13 01:41:19;;;;;;;0.80;0.80;;;17.00;63.00;;;;;;4988056;28;43413;-71
2023/03/13 01:43:50;;;;;;;0.83;0.83;;;17.00;63.10;;;;;;4970634;28;43421;-72
2023/03/13 01:46:19;;;;;;;1.00;1.00;;;16.90;63.20;;;;;;4988364;28;43635;-70
2023/03/13 01:48:54;;;;;;;1.00;1.00;;;17.00;63.20;;;;;;4984173;28;43530;-71
2023/03/13 01:51:25;;;;;;;1.00;1.00;;;17.10;62.90;;;;;;4972621;28;44685;-71
2023/03/13 01:53:57;;;;;;;0.90;0.90;;;17.20;62.50;;;;;;4970281;28;43447;-70
2023/03/13 01:56:29;;;;;;;1.00;1.00;;;17.20;62.30;;;;;;4988442;28;43498;-71
2023/03/13 01:58:58;;;;;;;0.80;0.80;;;17.20;62.40;;;;;;4970709;28;45759;-72
2023/03/13 02:01:27;;;;;;;0.80;0.80;;;17.10;62.40;;;;;;4971298;28;44867;-71
2023/03/13 02:03:55;;;;;;;1.10;1.00;;;17.10;62.60;;;;;;4988071;28;43418;-70
2023/03/13 02:06:23;;;;;;;0.90;0.90;;;17.10;62.50;;;;;;4988291;28;43581;-72
2023/03/13 02:08:52;;;;;;;1.07;1.07;;;17.10;62.70;;;;;;4987854;28;43876;-71
2023/03/13 02:11:25;;;;;;;0.90;0.90;;;17.10;62.70;;;;;;4992484;28;43517;-72
2023/03/13 02:13:53;;;;;;;0.80;0.80;;;17.10;62.80;;;;;;4970270;28;43405;-70
2023/03/13 02:16:23;;;;;;;0.80;0.80;;;17.00;62.90;;;;;;4967575;28;43840;-70
2023/03/13 02:18:50;;;;;;;1.00;1.00;;;17.00;63.00;;;;;;4981496;28;43598;-73
2023/03/13 02:21:25;;;;;;;0.90;0.90;;;17.00;62.90;;;;;;4987617;28;43948;-71
2023/03/13 02:23:56;;;;;;;0.80;0.80;;;17.00;63.60;;;;;;4982435;28;43952;-70
2023/03/13 02:26:25;;;;;;;0.90;0.90;;;17.00;62.90;;;;;;4976126;28;43998;-71
2023/03/13 02:28:53;;;;;;;0.80;0.80;;;17.00;63.00;;;;;;4987457;28;43912;-70
2023/03/13 02:31:22;;;;;;;0.97;0.97;;;17.00;63.10;;;;;;4975078;28;44781;-70
2023/03/13 02:33:50;;;;;;;0.60;0.60;;;17.00;63.20;;;;;;4966175;28;43463;-71
2023/03/13 02:36:19;;;;;;;0.70;0.70;;;17.00;63.20;;;;;;4970525;28;44129;-71
2023/03/13 02:38:50;;;;;;;0.80;0.80;;;17.10;63.00;;;;;;4973181;28;45716;-73
2023/03/13 02:41:18;;;;;;;0.80;0.80;;;17.10;62.70;;;;;;4969047;28;44425;-71
2023/03/13 02:43:48;;;;;;;0.80;0.80;;;17.10;62.60;;;;;;4969913;28;43418;-71
2023/03/13 02:46:17;;;;;;;0.90;0.90;;;17.10;62.70;;;;;;4970280;28;43541;-71
2023/03/13 02:48:49;;;;;;;0.80;0.80;;;17.10;62.70;;;;;;4969745;28;46162;-72
2023/03/13 02:51:20;;;;;;;0.87;0.87;;;17.10;63.00;;;;;;4971733;28;44766;-70
2023/03/13 02:53:49;;;;;;;0.90;0.90;;;17.10;62.90;;;;;;4986831;28;43457;-70
2023/03/13 02:56:17;;;;;;;0.73;0.73;;;17.10;62.80;;;;;;4970038;28;43447;-71
2023/03/13 02:58:47;;;;;;;0.73;0.73;;;17.00;62.80;;;;;;4972412;28;44146;-72
2023/03/13 03:01:20;;;;;;;0.70;0.70;;;17.10;63.00;;;;;;4971392;28;43951;-71
2023/03/13 03:03:49;;;;;;;0.70;0.70;;;17.00;63.00;;;;;;4969353;28;43449;-70
2023/03/13 03:06:17;;;;;;;0.90;0.90;;;17.00;63.20;;;;;;4987590;28;43404;-72
2023/03/13 03:08:46;;;;;;;0.90;0.90;;;17.00;63.20;;;;;;4969031;28;44034;-71
2023/03/13 03:11:14;;;;;;;0.93;0.93;;;17.10;63.00;;;;;;4975295;28;44980;-72
2023/03/13 03:13:45;;;;;;;0.80;0.80;;;17.10;62.70;;;;;;4970478;28;43490;-71
2023/03/13 03:16:17;;;;;;;0.70;0.70;;;17.20;62.60;;;;;;4970418;28;43474;-71
2023/03/13 03:18:45;;;;;;;0.80;0.80;;;17.10;62.70;;;;;;4986893;28;43962;-71
2023/03/13 03:21:13;;;;;;;0.90;0.90;;;17.10;62.70;;;;;;4986609;28;43412;-71
2023/03/13 03:23:41;;;;;;;0.80;0.80;;;17.10;62.90;;;;;;4969512;28;43411;-72
2023/03/13 03:26:09;;;;;;;0.80;0.80;;;17.10;62.90;;;;;;4987335;28;43934;-70
2023/03/13 03:28:38;;;;;;;0.80;0.80;;;17.10;62.90;;;;;;4969070;28;43825;-73
2023/03/13 03:31:11;;;;;;;0.60;0.60;;;17.10;62.90;;;;;;4963310;28;43455;-69
2023/03/13 03:33:41;;;;;;;0.70;0.70;;;17.00;62.90;;;;;;4972400;28;43426;-72
2023/03/13 03:36:13;;;;;;;0.70;0.70;;;17.00;63.00;;;;;;4971625;28;43429;-72
2023/03/13 03:38:41;;;;;;;0.70;0.70;;;17.00;63.10;;;;;;4968992;28;44979;-71
2023/03/13 03:41:12;;;;;;;0.80;0.80;;;17.00;63.20;;;;;;4963691;28;44515;-70
2023/03/13 03:43:40;;;;;;;0.83;0.83;;;17.00;63.10;;;;;;4986815;28;43379;-70
2023/03/13 03:46:10;;;;;;;0.73;0.73;;;17.00;63.10;;;;;;4969489;28;43517;-70
2023/03/13 03:48:39;;;;;;;0.90;0.90;;;17.00;63.10;;;;;;4974100;28;45425;-71
2023/03/13 03:51:10;;;;;;;0.80;0.80;;;17.00;63.20;;;;;;4972437;28;44838;-72
2023/03/13 03:53:41;;;;;;;0.70;0.70;;;17.00;63.20;;;;;;4968601;28;43471;-69
2023/03/13 03:56:09;;;;;;;0.70;0.70;;;16.90;64.00;;;;;;4986960;28;43452;-71
2023/03/13 03:58:42;;;;;;;0.90;0.90;;;17.00;63.20;;;;;;4971328;28;43945;-71
2023/03/13 04:01:33;;;;;;;0.50;0.50;;;17.10;62.90;;;;;;4985243;28;43306;-71
2023/03/13 04:04:03;;;;;;;0.60;0.60;;;17.20;62.60;;;;;;4967255;28;43520;-72
2023/03/13 04:06:32;;;;;;;0.70;0.70;;;17.20;62.50;;;;;;4963416;28;43591;-71
2023/03/13 04:09:02;;;;;;;0.87;0.87;;;17.20;62.60;;;;;;4966012;28;45465;-72
2023/03/13 04:11:31;;;;;;;0.77;0.77;;;17.20;62.80;;;;;;4975515;28;45136;-70
2023/03/13 04:13:59;;;;;;;0.80;0.80;;;17.10;62.70;;;;;;4989780;28;43461;-70
2023/03/13 04:16:27;;;;;;;0.67;0.67;;;17.10;62.70;;;;;;4972521;28;43430;-71
2023/03/13 04:18:56;;;;;;;0.70;0.70;;;17.10;62.80;;;;;;4977492;28;44731;-70
2023/03/13 04:21:26;;;;;;;0.60;0.60;;;17.10;62.90;;;;;;4972066;28;43391;-72
2023/03/13 04:24:02;;;;;;;0.70;0.70;;;17.10;63.00;;;;;;4972128;28;43474;-70
2023/03/13 04:26:32;;;;;;;0.83;0.83;;;17.00;63.00;;;;;;4972561;28;43442;-71
2023/03/13 04:29:00;;;;;;;0.60;0.60;;;17.00;63.20;;;;;;4977193;28;45091;-72
2023/03/13 04:31:49;;;;;;;0.67;0.67;;;17.00;63.10;;;;;;4974595;28;44904;-71
2023/03/13 04:34:32;;;;;;;0.73;0.73;;;17.00;63.10;;;;;;4984713;28;43400;-72
2023/03/13 04:37:17;;;;;;;0.60;0.60;;;17.00;63.20;;;;;;4971723;28;44016;-71
2023/03/13 04:40:06;;;;;;;0.80;0.80;;;17.00;63.20;;;;;;4986396;28;43630;-70
2023/03/13 04:42:57;;;;;;;0.73;0.73;;;17.00;63.30;;;;;;4947642;28;43464;-71
2023/03/13 04:45:48;;;;;;;0.70;0.70;;;17.00;63.40;;;;;;4988172;28;43421;-72
2023/03/13 04:48:37;;;;;;;0.70;0.70;;;17.10;63.20;;;;;;4954000;28;43415;-71
2023/03/13 04:51:37;;;;;;;0.83;0.83;;;17.20;62.90;;;;;;4934346;28;43772;-72
2023/03/13 04:54:24;;;;;;;0.80;0.80;;;17.20;62.80;;;;;;4988559;28;43383;-73
2023/03/13 04:56:53;;;;;;;0.70;0.70;;;17.20;62.90;;;;;;4982613;28;43410;-73
2023/03/13 04:59:26;;;;;;;0.70;0.70;;;17.10;62.90;;;;;;4988117;28;43468;-70
2023/03/13 05:02:21;;;;;;;0.60;0.60;;;17.10;62.90;;;;;;4962784;28;43578;-70
2023/03/13 05:04:58;;;;;;;0.50;0.50;;;17.10;62.90;;;;;;4983838;28;43543;-71
2023/03/13 05:07:46;;;;;;;0.80;0.80;;;17.10;63.00;;;;;;4987448;28;43473;-71
2023/03/13 05:10:31;;;;;;;0.60;0.60;;;17.10;63.10;;;;;;4971432;28;43553;-73
2023/03/13 05:13:18;;;;;;;0.80;0.80;;;17.10;63.20;;;;;;4981282;28;43928;-70
2023/03/13 05:15:56;;;;;;;0.70;0.70;;;17.00;63.30;;;;;;4994356;28;44817;-70
2023/03/13 05:18:34;;;;;;;0.73;0.73;;;17.00;63.20;;;;;;4981163;28;44039;-70
2023/03/13 05:21:14;;;;;;;0.50;0.50;;;17.00;63.20;;;;;;4996437;28;43413;-70
2023/03/13 05:24:05;;;;;;;0.70;0.70;;;17.00;63.20;;;;;;4994177;28;43892;-72
2023/03/13 05:26:32;;;;;;;0.70;0.70;;;17.00;63.20;;;;;;4996920;28;43516;-71
2023/03/13 05:29:23;;;;;;;0.67;0.67;;;17.00;63.40;;;;;;4977235;28;43525;-71
2023/03/13 05:32:07;;;;;;;0.80;0.80;;;17.00;63.50;;;;;;4992757;28;43412;-70
2023/03/13 05:34:45;;;;;;;0.80;0.80;;;17.00;63.40;;;;;;4979102;28;44039;-70
2023/03/13 05:37:33;;;;;;;0.60;0.60;;;17.10;63.10;;;;;;4946920;28;43539;-71
2023/03/13 05:40:12;;;;;;;0.70;0.70;;;17.20;62.90;;;;;;4980043;28;43457;-71
2023/03/13 05:43:03;;;;;;;0.70;0.70;;;17.20;62.90;;;;;;4974893;28;43492;-71
2023/03/13 05:45:47;;;;;;;0.70;0.70;;;17.10;62.90;;;;;;4978933;28;45953;-71
2023/03/13 05:48:47;;;;;;;0.70;0.70;;;17.10;63.10;;;;;;4955828;28;43462;-72
2023/03/13 05:51:33;;;;;;;0.70;0.70;;;17.10;63.70;;;;;;4991190;28;43353;-72
2023/03/13 05:54:33;;;;;;;0.57;0.57;;;17.10;63.10;;;;;;4940832;28;43514;-70
2023/03/13 05:57:22;;;;;;;0.60;0.60;;;17.10;63.20;;;;;;4970992;28;44752;-72
2023/03/13 05:59:53;;;;;;;0.73;0.73;;;17.00;63.20;;;;;;4984874;28;43860;-72
2023/03/13 06:02:41;;;;;;;0.77;0.77;;;17.00;63.30;;;;;;4984343;28;43435;-70
2023/03/13 06:05:13;;;;;;;0.60;0.60;;;17.00;63.40;;;;;;4970756;28;43579;-69
2023/03/13 06:07:41;;;;;;;0.60;0.60;;;17.10;63.10;;;;;;4967222;28;45830;-71
2023/03/13 06:10:10;;;;;;;0.70;0.70;;;17.20;63.70;;;;;;4993161;28;44034;-71
2023/03/13 06:12:39;;;;;;;0.70;0.70;;;17.20;62.90;;;;;;4987501;28;43349;-70
2023/03/13 06:15:11;;;;;;;0.60;0.60;;;17.20;63.00;;;;;;4974260;28;44031;-70
2023/03/13 06:18:03;;;;;;;0.50;0.50;;;17.10;63.00;;;;;;4970527;28;44019;-70
2023/03/13 06:20:31;;;;;;;0.60;0.60;;;17.10;63.10;;;;;;4970579;28;43641;-71
2023/03/13 06:22:59;;;;;;;0.60;0.60;;;17.10;63.00;;;;;;4987758;28;43836;-71
2023/03/13 06:25:27;;;;;;;0.67;0.67;;;17.10;63.10;;;;;;4989549;28;44056;-70
2023/03/13 06:27:55;;;;;;;0.70;0.70;;;17.10;63.20;;;;;;4984834;28;43768;-71
2023/03/13 06:30:23;;;;;;;0.50;0.50;;;17.10;63.30;;;;;;4984872;28;43509;-71
2023/03/13 06:32:51;;;;;;;0.67;0.67;;;17.10;63.30;;;;;;4969980;28;43403;-71
2023/03/13 06:35:20;;;;;;;0.63;0.63;;;17.00;63.30;;;;;;4987210;28;43471;-70
2023/03/13 06:37:48;;;;;;;0.70;0.70;;;17.10;63.30;;;;;;4972533;28;46035;-71
2023/03/13 06:40:16;;;;;;;0.60;0.60;;;17.10;64.00;;;;;;4986729;28;43450;-71
2023/03/13 06:42:44;;;;;;;0.70;0.70;;;17.10;63.30;;;;;;4984626;28;43346;-71
2023/03/13 06:45:12;;;;;;;0.63;0.63;;;17.10;63.30;;;;;;4969864;28;43986;-71
2023/03/13 06:47:40;;;;;;;0.50;0.50;;;17.10;63.40;;;;;;4987008;28;43935;-71
2023/03/13 06:50:09;;;;;;;0.77;0.77;;;17.00;63.40;;;;;;4987109;28;43483;-71
2023/03/13 06:52:38;;;;;;;0.60;0.60;;;17.00;63.50;;;;;;4987020;28;43425;-72
2023/03/13 06:55:11;;;;;;;0.60;0.60;;;17.10;63.40;;;;;;4963339;28;43548;-71
2023/03/13 06:57:39;;;;;;;0.60;0.60;;;17.20;63.10;;;;;;4985940;28;43720;-72
2023/03/13 07:00:10;;;;;;;0.60;0.60;;;17.30;62.70;;;;;;4977385;28;45193;-71
2023/03/13 07:02:38;;;;;;;0.67;0.67;;;17.30;62.50;;;;;;4971996;28;43417;-70
2023/03/13 07:05:07;;;;;;;0.67;0.67;;;17.30;62.60;;;;;;4976703;28;43552;-71
2023/03/13 07:07:35;;;;;;;0.60;0.60;;;17.20;62.80;;;;;;4986482;28;43930;-71
2023/03/13 07:10:06;;;;;;;0.60;0.60;;;17.20;62.80;;;;;;4987035;28;43471;-71
2023/03/13 07:12:34;;;;;;;0.70;0.70;;;17.30;62.80;;;;;;4970124;28;43413;-71
2023/03/13 07:15:02;;;;;;;0.77;0.77;;;17.20;62.90;;;;;;4987178;28;43941;-70
2023/03/13 07:17:30;;;;;;;0.50;0.50;;;17.20;63.00;;;;;;4986805;28;43739;-73
2023/03/13 07:19:58;;;;;;;0.60;0.60;;;17.10;63.10;;;;;;4986605;28;43489;-71
2023/03/13 07:22:26;;;;;;;0.60;0.60;;;17.10;63.20;;;;;;4971765;28;43464;-72
2023/03/13 07:24:54;;;;;;;0.50;0.50;;;17.10;63.40;;;;;;4987243;28;43560;-71
2023/03/13 07:27:24;;;;;;;0.60;0.60;;;17.10;63.20;;;;;;4987886;28;43600;-71
2023/03/13 07:29:52;;;;;;;0.63;0.63;;;17.10;63.30;;;;;;4986956;28;43486;-72
2023/03/13 07:32:20;;;;;;;0.60;0.60;;;17.10;63.40;;;;;;4986963;28;43413;-72
2023/03/13 07:34:48;;;;;;;0.60;0.60;;;17.00;63.30;;;;;;4987108;28;43362;-70
2023/03/13 07:37:15;;;;;;;0.50;0.50;;;17.00;63.40;;;;;;4986255;28;43926;-70
2023/03/13 07:39:43;;;;;;;0.67;0.67;;;17.00;63.60;;;;;;4971082;28;45207;-71
2023/03/13 07:42:12;;;;;;;0.60;0.60;;;17.10;64.30;;;;;;4969579;28;43442;-70
2023/03/13 07:44:42;;;;;;;0.60;0.60;;;17.20;63.30;;;;;;4969459;28;43511;-71
2023/03/13 07:47:10;;;;;;;0.53;0.53;;;17.20;63.10;;;;;;4989788;28;44035;-70
2023/03/13 07:49:42;;;;;;;0.53;0.53;;;17.20;63.00;;;;;;4990266;28;43390;-70
2023/03/13 07:52:10;;;;;;;0.70;0.70;;;17.20;63.10;;;;;;4990433;28;43392;-70
2023/03/13 07:54:38;;;;;;;0.70;0.70;;;17.20;63.20;;;;;;4972568;28;43586;-72
2023/03/13 07:57:06;;;;;;;0.60;0.60;;;17.20;63.30;;;;;;4985896;28;43931;-70
2023/03/13 07:59:34;;;;;;;0.80;0.80;;;17.20;63.10;;;;;;4971947;28;45019;-71
2023/03/13 08:02:04;;;;;;;0.60;0.60;;;17.20;63.10;;;;;;4972640;28;43491;-71
2023/03/13 08:04:32;;;;;;;0.60;0.60;;;17.20;63.20;;;;;;4975026;28;43423;-71
2023/03/13 08:07:00;;;;;;;0.50;0.50;;;17.20;63.20;;;;;;4972829;28;45760;-72
2023/03/13 08:09:28;;;;;;;0.53;0.53;;;17.20;63.40;;;;;;4979339;28;44724;-70
2023/03/13 08:11:56;;;;;;;0.60;0.60;;;17.10;63.40;;;;;;4992283;28;43444;-71
2023/03/13 08:14:24;;;;;;;0.43;0.43;;;17.20;63.50;;;;;;4986815;28;43442;-71
2023/03/13 08:16:52;;;;;;;0.47;0.47;;;17.20;63.20;;;;;;4989306;28;43976;-71
2023/03/13 08:19:21;;;;;;;0.60;0.60;;;17.20;62.90;;;;;;4989362;28;43441;-72
2023/03/13 08:21:49;;;;;;;0.67;0.67;;;17.20;62.90;;;;;;4971980;28;43972;-71
2023/03/13 08:24:17;;;;;;;0.50;0.50;;;17.20;63.00;;;;;;4990113;28;43448;-71
2023/03/13 08:26:45;;;;;;;0.57;0.57;;;17.20;63.10;;;;;;4989380;28;43941;-71
2023/03/13 08:29:13;;;;;;;0.50;0.50;;;17.20;63.30;;;;;;4989504;28;43397;-71
2023/03/13 08:31:44;;;;;;;0.70;0.70;;;17.20;63.10;;;;;;4971893;28;43916;-69
2023/03/13 08:34:17;;;;;;;0.53;0.53;;;17.20;63.90;;;;;;4972300;28;43451;-72
2023/03/13 08:36:46;;;;;;;0.70;0.70;;;17.20;63.30;;;;;;4989267;28;43851;-71
2023/03/13 08:39:14;;;;;;;0.60;0.60;;;17.10;63.30;;;;;;4989231;28;44545;-70
2023/03/13 08:41:44;;;;;;;0.67;0.67;;;17.10;63.40;;;;;;4988384;28;43477;-70
2023/03/13 08:44:13;;;;;;;0.47;0.47;;;17.10;63.70;;;;;;4972182;28;43433;-70
2023/03/13 08:46:42;;;;;;;0.70;0.70;;;17.10;63.50;;;;;;4988792;28;43977;-70
2023/03/13 08:49:11;;;;;;;0.50;0.50;;;17.20;63.30;;;;;;4974213;28;44399;-71
2023/03/13 08:51:39;;;;;;;0.70;0.70;;;17.20;63.00;;;;;;4971743;28;43859;-71
2023/03/13 08:54:08;;;;;;;0.50;0.50;;;17.20;62.90;;;;;;4988848;28;43556;-71
2023/03/13 08:56:36;;;;;;;0.70;0.70;;;17.20;63.10;;;;;;4983309;28;43888;-72
2023/03/13 08:59:04;;;;;;;0.70;0.70;;;17.20;63.20;;;;;;4988502;28;44045;-72
2023/03/13 09:01:33;;;;;;;0.70;0.70;;;17.20;63.30;;;;;;4982712;28;43966;-72
2023/03/13 09:04:04;;;;;;;0.60;0.60;;;17.20;63.20;;;;;;4971760;28;43620;-73
2023/03/13 09:06:33;;;;;;;0.60;0.60;;;17.20;63.20;;;;;;4985562;28;44024;-70
2023/03/13 09:09:01;;;;;;;0.40;0.40;;;17.10;63.20;;;;;;4989026;28;43465;-71
2023/03/13 09:11:32;;;;;;;0.63;0.63;;;17.10;63.30;;;;;;4991748;28;44509;-73
2023/03/13 09:14:00;;;;;;;0.67;0.67;;;17.10;63.40;;;;;;4989610;28;43450;-72
2023/03/13 09:16:29;;;;;;;0.70;0.70;;;17.00;63.50;;;;;;4988793;28;44052;-71
2023/03/13 09:18:57;;;;;;;0.60;0.60;;;17.10;63.50;;;;;;4988937;28;43391;-70
2023/03/13 09:21:26;;;;;;;0.70;0.70;;;17.20;63.20;;;;;;4988993;28;43468;-69
2023/03/13 09:23:53;;;;;;;0.70;0.70;;;17.20;63.00;;;;;;4989203;28;43382;-72
2023/03/13 09:26:22;;;;;;;0.60;0.60;;;17.20;63.00;;;;;;4988220;28;43956;-71
2023/03/13 09:28:51;;;;;;;0.50;0.50;;;17.20;63.10;;;;;;4988452;28;43937;-71
2023/03/13 09:31:21;;;;;;;0.60;0.60;;;17.10;63.20;;;;;;4988717;28;43418;-72
2023/03/13 09:33:49;;;;;;;0.70;0.70;;;17.10;63.30;;;;;;4989129;28;43404;-71
2023/03/13 09:36:17;;;;;;;0.50;0.50;;;17.10;63.10;;;;;;4988282;28;44009;-71
2023/03/13 09:38:51;;;;;;;0.60;0.60;;;17.10;63.20;;;;;;4988553;28;43969;-71
2023/03/13 09:41:26;;;;;;;0.50;0.50;;;17.10;63.30;;;;;;4988259;28;43441;-72
2023/03/13 09:44:00;;;;;;;0.67;0.67;;;17.10;63.40;;;;;;4988911;28;43340;-70
2023/03/13 09:46:33;;;;;;;0.80;0.80;;;17.10;63.40;;;;;;4988226;28;43888;-72
2023/03/13 09:49:08;;;;;;;2.53;0.70;;;17.00;63.50;;;;;;4988715;28;43386;-70
2023/03/13 09:51:37;;;;;;;1.07;0.70;;;17.10;63.40;;;;;;4988494;28;43373;-71
2023/03/13 09:54:07;;;;;;;0.70;0.70;;;17.20;63.10;;;;;;4988357;28;43465;-70
2023/03/13 09:56:43;;;;;;;0.70;0.70;;;17.30;62.90;;;;;;4987896;28;43928;-71
2023/03/13 09:59:16;;;;;;;0.80;0.80;;;17.30;62.80;;;;;;4987965;28;43452;-70
2023/03/13 10:01:44;;;;;;;0.63;0.63;;;17.30;62.90;;;;;;4974712;28;43418;-70
2023/03/13 10:04:21;;;;;;;0.70;0.70;;;17.20;63.00;;;;;;4988527;28;43374;-71
2023/03/13 10:06:50;;;;;;;0.70;0.70;;;17.20;63.10;;;;;;4985790;28;43807;-71
2023/03/13 10:09:20;;;;;;;0.60;0.60;;;17.20;62.90;;;;;;4989513;28;43480;-71
2023/03/13 10:11:53;;;;;;;0.60;0.60;;;17.20;63.00;;;;;;4973788;28;43451;-70
2023/03/13 10:14:26;;;;;;;0.60;0.60;;;17.20;63.20;;;;;;4988115;28;43469;-71
2023/03/13 10:16:55;;;;;;;0.70;0.70;;;17.10;63.20;;;;;;4970291;28;46093;-70
2023/03/13 10:19:27;;;;;;;0.50;0.50;;;17.10;63.20;;;;;;4970893;28;45066;-70
2023/03/13 10:21:55;;;;;;;0.43;0.43;;;17.10;63.40;;;;;;4987976;28;43393;-71
2023/03/13 10:24:30;;;;;;;0.60;0.60;;;17.10;63.30;;;;;;4972047;28;43537;-70
2023/03/13 10:26:58;;;;;;;0.70;0.70;;;17.10;63.30;;;;;;4987753;28;43617;-72
2023/03/13 10:29:28;;;;;;;0.60;0.60;;;17.10;63.30;;;;;;4971181;28;44653;-70
2023/03/13 10:31:57;;;;;;;0.60;0.60;;;17.10;63.40;;;;;;4987733;28;43452;-69
2023/03/13 10:34:25;;;;;;;0.60;0.60;;;17.10;63.50;;;;;;4985960;28;43433;-72
2023/03/13 10:36:57;;;;;;;0.70;0.70;;;17.10;64.40;;;;;;4971369;28;45887;-73
2023/03/13 10:39:26;;;;;;;0.60;0.60;;;17.20;63.60;;;;;;4981920;28;43449;-72
2023/03/13 10:41:58;;;;;;;0.63;0.63;;;17.20;63.20;;;;;;4982017;28;43419;-69
2023/03/13 10:44:32;;;;;;;0.70;0.70;;;17.30;63.00;;;;;;4972732;28;43414;-71
2023/03/13 10:47:01;;;;;;;0.50;0.50;;;17.30;62.90;;;;;;4987700;28;43851;-70
2023/03/13 10:49:29;;;;;;;0.60;0.60;;;17.30;63.00;;;;;;4987575;28;43814;-73
2023/03/13 10:51:58;;;;;;;0.53;0.53;;;17.30;63.20;;;;;;4970284;28;43438;-72
2023/03/13 10:54:28;;;;;;;0.60;0.60;;;17.30;63.20;;;;;;4987672;28;43484;-73
2023/03/13 10:57:27;;;;;;;0.60;0.60;;;17.20;63.00;;;;;;4987218;28;43913;-71
2023/03/13 10:59:56;;;;;;;0.70;0.70;;;17.30;63.20;;;;;;4981403;28;43913;-71
2023/03/13 11:02:32;;;;;;;0.60;0.60;;;17.20;63.20;;;;;;4965999;28;43878;-71
2023/03/13 11:05:00;;;;;;;0.50;0.50;;;17.20;63.30;;;;;;4987329;28;43373;-70
2023/03/13 11:07:30;;;;;;;0.50;0.50;;;17.20;63.50;;;;;;4971405;28;44376;-71
2023/03/13 11:09:59;;;;;;;0.70;0.70;;;17.20;63.50;;;;;;4987579;28;43822;-70
2023/03/13 11:12:27;;;;;;;0.60;0.60;;;17.20;63.50;;;;;;4972464;28;43499;-72
2023/03/13 11:14:59;;;;;;;0.83;0.83;;;17.20;63.50;;;;;;4987651;28;43899;-71
2023/03/13 11:17:32;;;;;;;0.60;0.60;;;17.20;63.50;;;;;;4969209;28;45737;-72
2023/03/13 11:20:06;;;;;;;0.80;0.80;;;17.10;63.40;;;;;;4967411;28;44841;-72
2023/03/13 11:22:40;;;;;;;0.50;0.50;;;17.10;63.60;;;;;;4986605;28;43366;-72
2023/03/13 11:25:28;;;;;;;0.40;0.40;;;17.10;63.70;;;;;;4986920;28;43394;-72
2023/03/13 11:28:05;;;;;;;0.57;0.57;;;17.20;63.50;;;;;;4981129;28;43573;-73
2023/03/13 11:30:47;;;;;;;0.70;0.70;;;17.30;63.20;;;;;;4969333;28;45110;-72
2023/03/13 11:33:22;;;;;;;0.50;0.50;;;17.30;62.90;;;;;;4986704;28;43385;-73
2023/03/13 11:35:52;;;;;;;0.70;0.70;;;17.30;63.00;;;;;;4986948;28;43447;-73
2023/03/13 11:38:24;;;;;;;0.50;0.50;;;17.30;63.10;;;;;;4985740;28;43881;-72
2023/03/13 11:40:56;;;;;;;0.70;0.70;;;17.30;63.20;;;;;;4986458;28;44027;-72
2023/03/13 11:43:32;;;;;;;0.80;0.80;;;17.30;63.20;;;;;;4986219;28;43421;-72
2023/03/13 11:46:13;;;;;;;0.60;0.60;;;17.20;63.10;;;;;;4981193;28;43395;-73
2023/03/13 11:49:27;;;;;;;0.60;0.60;;;17.20;63.20;;;;;;4986245;28;43617;-74
2023/03/13 11:52:01;;;;;;;0.70;0.70;;;17.20;63.30;;;;;;4895628;29;43424;-72
2023/03/13 11:54:49;;;;;;;0.70;0.70;;;17.20;63.50;;;;;;4950898;28;44114;-72
2023/03/13 11:57:21;;;;;;;0.60;0.60;;;17.20;63.50;;;;;;4985326;28;44122;-72
2023/03/13 11:59:52;;;;;;;0.60;0.60;;;17.20;63.50;;;;;;4986155;28;43736;-72
2023/03/13 12:02:23;;;;;;;0.60;0.60;;;17.20;63.50;;;;;;4985834;28;43435;-72
2023/03/13 12:04:54;;;;;;;0.70;0.70;;;17.10;64.20;;;;;;4963431;28;43405;-72
2023/03/13 12:07:25;;;;;;;0.53;0.53;;;17.20;63.60;;;;;;4985586;28;43411;-72
2023/03/13 12:09:54;;;;;;;0.70;0.70;;;17.10;63.60;;;;;;4968386;28;45903;-73
2023/03/13 12:12:28;;;;;;;0.70;0.70;;;17.10;63.70;;;;;;4985878;28;43416;-72
2023/03/13 12:14:57;;;;;;;0.60;0.60;;;17.20;63.50;;;;;;4986266;28;43297;-72
2023/03/13 12:17:31;;;;;;;0.63;0.63;;;17.30;63.20;;;;;;4986810;28;43467;-72
2023/03/13 12:20:03;;;;;;;0.60;0.60;;;17.30;63.00;;;;;;4982837;28;43884;-71
2023/03/13 12:22:35;;;;;;;0.50;0.50;;;17.30;63.00;;;;;;4985866;28;43470;-71
2023/03/13 12:25:04;;;;;;;0.80;0.80;;;17.30;63.10;;;;;;4985816;28;43414;-72
2023/03/13 12:27:35;;;;;;;1.03;0.50;;;17.20;63.30;;;;;;4986340;28;43495;-74
2023/03/13 12:30:05;;;;;;;0.63;0.63;;;17.30;63.30;;;;;;4986016;28;43593;-72
2023/03/13 12:32:37;;;;;;;0.50;0.50;;;17.20;63.20;;;;;;4970092;28;45079;-73
2023/03/13 12:35:08;;;;;;;0.50;0.50;;;17.30;63.30;;;;;;4971332;28;43485;-72
2023/03/13 12:37:39;;;;;;;0.57;0.57;;;17.20;63.30;;;;;;4989568;28;43423;-72
2023/03/13 12:40:12;;;;;;;0.67;0.67;;;17.20;63.40;;;;;;4989177;28;43902;-71
2023/03/13 12:42:44;;;;;;;0.60;0.60;;;17.20;63.50;;;;;;4984309;28;43425;-72
2023/03/13 12:45:16;;;;;;;0.70;0.70;;;17.20;63.50;;;;;;4989482;28;43566;-72
2023/03/13 12:48:01;;;;;;;0.50;0.50;;;17.20;63.50;;;;;;4989368;28;43409;-73
2023/03/13 12:50:34;;;;;;;0.60;0.60;;;17.20;63.50;;;;;;4989166;28;44070;-72
2023/03/13 12:53:45;;;;;;;0.50;0.50;;;17.20;63.50;;;;;;4989111;28;43407;-72
2023/03/13 12:56:29;;;;;;;0.60;0.60;;;17.10;63.50;;;;;;4890003;29;43408;-72
2023/03/13 12:58:57;;;;;;;0.70;0.70;;;17.10;63.70;;;;;;4980397;28;43539;-72
2023/03/13 13:01:33;;;;;;;0.60;0.60;;;17.20;63.80;;;;;;4988988;28;43927;-72
2023/03/13 13:04:05;;;;;;;0.70;0.70;;;17.20;63.50;;;;;;4987726;28;43441;-71
2023/03/13 13:06:51;;;;;;;0.60;0.60;;;17.30;63.10;;;;;;4988943;28;43463;-72
2023/03/13 13:09:21;;;;;;;0.60;0.60;;;17.40;63.00;;;;;;4990860;28;43995;-72
2023/03/13 13:11:49;;;;;;;0.60;0.60;;;17.30;63.00;;;;;;4973902;28;45910;-72
2023/03/13 13:14:51;;;;;;;0.70;0.70;;;17.30;63.10;;;;;;4988789;28;43436;-71